sensor_id;sensor_type;location;lat;lon;timestamp;temperature;humidity
21353;DHT22;10834;52.268;6.770;2023-04-27T00:00:38;3.00;99.90
21353;DHT22;10834;52.268;6.770;2023-04-27T00:03:24;2.90;99.90
21353;DHT22;10834;52.268;6.770;2023-04-27T00:06:10;2.90;99.90
21353;DHT22;10834;52.268;6.770;2023-04-27T00:08:56;2.90;99.90
21353;DHT22;10834;52.268;6.770;2023-04-27T00:11:43;2.80;99.90
21353;DHT22;10834;52.268;6.770;2023-04-27T00:14:29;2.80;99.90
21353;DHT22;10834;52.268;6.770;2023-04-27T00:17:15;2.80;99.90
21353;DHT22;10834;52.268;6.770;2023-04-27T00:20:02;2.80;99.90
21353;DHT22;10834;52.268;6.770;2023-04-27T00:22:50;2.70;99.90
21353;DHT22;10834;52.268;6.770;2023-04-27T00:25:36;2.80;99.90
21353;DHT22;10834;52.268;6.770;2023-04-27T00:28:22;2.70;99.90
21353;DHT22;10834;52.268;6.770;2023-04-27T00:31:08;2.70;99.90
21353;DHT22;10834;52.268;6.770;2023-04-27T00:33:54;2.60;99.90
21353;DHT22;10834;52.268;6.770;2023-04-27T00:36:40;2.50;99.90
21353;DHT22;10834;52.268;6.770;2023-04-27T00:39:26;2.60;99.90
21353;DHT22;10834;52.268;6.770;2023-04-27T00:42:12;2.50;99.90
21353;DHT22;10834;52.268;6.770;2023-04-27T00:45:02;2.50;99.90
21353;DHT22;10834;52.268;6.770;2023-04-27T00:47:49;2.50;99.90
21353;DHT22;10834;52.268;6.770;2023-04-27T00:50:36;2.50;99.90
21353;DHT22;10834;52.268;6.770;2023-04-27T00:53:23;2.50;99.90
21353;DHT22;10834;52.268;6.770;2023-04-27T00:56:11;2.40;99.90
21353;DHT22;10834;52.268;6.770;2023-04-27T00:58:57;2.40;99.90
21353;DHT22;10834;52.268;6.770;2023-04-27T01:01:47;2.40;99.90
21353;DHT22;10834;52.268;6.770;2023-04-27T01:04:34;2.30;99.90
21353;DHT22;10834;52.268;6.770;2023-04-27T01:07:25;2.30;99.90
21353;DHT22;10834;52.268;6.770;2023-04-27T01:10:11;2.30;99.90
21353;DHT22;10834;52.268;6.770;2023-04-27T01:12:57;2.20;99.90
21353;DHT22;10834;52.268;6.770;2023-04-27T01:15:44;2.20;99.90
21353;DHT22;10834;52.268;6.770;2023-04-27T01:18:30;2.10;99.90
21353;DHT22;10834;52.268;6.770;2023-04-27T01:21:16;2.10;99.90
21353;DHT22;10834;52.268;6.770;2023-04-27T01:24:06;2.10;99.90
21353;DHT22;10834;52.268;6.770;2023-04-27T01:26:52;2.10;99.90
21353;DHT22;10834;52.268;6.770;2023-04-27T01:29:38;2.10;99.90
21353;DHT22;10834;52.268;6.770;2023-04-27T01:32:25;2.00;99.90
21353;DHT22;10834;52.268;6.770;2023-04-27T01:35:11;2.00;99.90
21353;DHT22;10834;52.268;6.770;2023-04-27T01:37:57;2.00;99.90
21353;DHT22;10834;52.268;6.770;2023-04-27T01:40:43;1.90;99.90
21353;DHT22;10834;52.268;6.770;2023-04-27T01:43:30;2.00;99.90
21353;DHT22;10834;52.268;6.770;2023-04-27T01:46:16;1.90;99.90
21353;DHT22;10834;52.268;6.770;2023-04-27T01:49:02;1.90;99.90
21353;DHT22;10834;52.268;6.770;2023-04-27T01:51:49;1.80;99.90
21353;DHT22;10834;52.268;6.770;2023-04-27T01:54:35;1.80;99.90
21353;DHT22;10834;52.268;6.770;2023-04-27T01:57:21;1.80;99.90
21353;DHT22;10834;52.268;6.770;2023-04-27T02:00:07;1.70;99.90
21353;DHT22;10834;52.268;6.770;2023-04-27T02:02:53;1.70;99.90
21353;DHT22;10834;52.268;6.770;2023-04-27T02:05:42;1.70;99.90
21353;DHT22;10834;52.268;6.770;2023-04-27T02:08:28;1.70;99.90
21353;DHT22;10834;52.268;6.770;2023-04-27T02:11:14;1.60;99.90
21353;DHT22;10834;52.268;6.770;2023-04-27T02:14:00;1.60;99.90
21353;DHT22;10834;52.268;6.770;2023-04-27T02:16:46;1.60;99.90
21353;DHT22;10834;52.268;6.770;2023-04-27T02:19:32;1.60;99.90
21353;DHT22;10834;52.268;6.770;2023-04-27T02:22:18;1.50;99.90
21353;DHT22;10834;52.268;6.770;2023-04-27T02:25:04;1.50;99.90
21353;DHT22;10834;52.268;6.770;2023-04-27T02:27:51;1.50;99.90
21353;DHT22;10834;52.268;6.770;2023-04-27T02:30:36;1.40;99.90
21353;DHT22;10834;52.268;6.770;2023-04-27T02:33:22;1.40;99.90
21353;DHT22;10834;52.268;6.770;2023-04-27T02:36:08;1.30;99.90
21353;DHT22;10834;52.268;6.770;2023-04-27T02:38:55;1.20;99.90
21353;DHT22;10834;52.268;6.770;2023-04-27T02:41:41;1.20;99.90
21353;DHT22;10834;52.268;6.770;2023-04-27T02:44:27;1.20;99.90
21353;DHT22;10834;52.268;6.770;2023-04-27T02:47:14;1.20;99.90
21353;DHT22;10834;52.268;6.770;2023-04-27T02:50:00;1.20;99.90
21353;DHT22;10834;52.268;6.770;2023-04-27T02:52:46;1.20;99.90
21353;DHT22;10834;52.268;6.770;2023-04-27T02:55:32;1.30;99.90
21353;DHT22;10834;52.268;6.770;2023-04-27T02:58:18;1.30;99.90
21353;DHT22;10834;52.268;6.770;2023-04-27T03:01:05;1.30;99.90
21353;DHT22;10834;52.268;6.770;2023-04-27T03:03:51;1.30;99.90
21353;DHT22;10834;52.268;6.770;2023-04-27T03:06:37;1.30;99.90
21353;DHT22;10834;52.268;6.770;2023-04-27T03:09:23;1.30;99.90
21353;DHT22;10834;52.268;6.770;2023-04-27T03:12:09;1.30;99.90
21353;DHT22;10834;52.268;6.770;2023-04-27T03:14:55;1.30;99.90
21353;DHT22;10834;52.268;6.770;2023-04-27T03:17:41;1.30;99.90
21353;DHT22;10834;52.268;6.770;2023-04-27T03:20:27;1.20;99.90
21353;DHT22;10834;52.268;6.770;2023-04-27T03:23:13;1.20;99.90
21353;DHT22;10834;52.268;6.770;2023-04-27T03:25:59;1.20;99.90
21353;DHT22;10834;52.268;6.770;2023-04-27T03:28:46;1.20;99.90
21353;DHT22;10834;52.268;6.770;2023-04-27T03:31:32;1.20;99.90
21353;DHT22;10834;52.268;6.770;2023-04-27T03:34:18;1.20;99.90
21353;DHT22;10834;52.268;6.770;2023-04-27T03:37:05;1.10;99.90
21353;DHT22;10834;52.268;6.770;2023-04-27T03:39:52;1.10;99.90
21353;DHT22;10834;52.268;6.770;2023-04-27T03:42:38;1.10;99.90
21353;DHT22;10834;52.268;6.770;2023-04-27T03:45:24;1.10;99.90
21353;DHT22;10834;52.268;6.770;2023-04-27T03:48:10;1.10;99.90
21353;DHT22;10834;52.268;6.770;2023-04-27T03:50:56;1.10;99.90
21353;DHT22;10834;52.268;6.770;2023-04-27T03:53:42;1.10;99.90
21353;DHT22;10834;52.268;6.770;2023-04-27T03:56:28;1.10;99.90
21353;DHT22;10834;52.268;6.770;2023-04-27T03:59:14;1.00;99.90
21353;DHT22;10834;52.268;6.770;2023-04-27T04:02:00;1.00;99.90
21353;DHT22;10834;52.268;6.770;2023-04-27T04:04:48;0.90;99.90
21353;DHT22;10834;52.268;6.770;2023-04-27T04:07:34;0.90;99.90
21353;DHT22;10834;52.268;6.770;2023-04-27T04:10:20;0.90;99.90
21353;DHT22;10834;52.268;6.770;2023-04-27T04:13:06;0.90;99.90
21353;DHT22;10834;52.268;6.770;2023-04-27T04:16:05;1.00;99.90
21353;DHT22;10834;52.268;6.770;2023-04-27T04:18:52;1.00;99.90
21353;DHT22;10834;52.268;6.770;2023-04-27T04:21:38;1.00;99.90
21353;DHT22;10834;52.268;6.770;2023-04-27T04:24:24;1.00;99.90
21353;DHT22;10834;52.268;6.770;2023-04-27T04:27:10;1.00;99.90
21353;DHT22;10834;52.268;6.770;2023-04-27T04:29:56;1.00;99.90
21353;DHT22;10834;52.268;6.770;2023-04-27T04:32:44;1.10;99.90
21353;DHT22;10834;52.268;6.770;2023-04-27T04:35:31;1.10;99.90
21353;DHT22;10834;52.268;6.770;2023-04-27T04:38:19;1.20;99.90
21353;DHT22;10834;52.268;6.770;2023-04-27T04:41:05;1.20;99.90
21353;DHT22;10834;52.268;6.770;2023-04-27T04:43:52;1.20;99.90
21353;DHT22;10834;52.268;6.770;2023-04-27T04:46:38;1.20;99.90
21353;DHT22;10834;52.268;6.770;2023-04-27T04:49:24;1.30;99.90
21353;DHT22;10834;52.268;6.770;2023-04-27T04:52:10;1.40;99.90
21353;DHT22;10834;52.268;6.770;2023-04-27T04:54:56;1.40;99.90
21353;DHT22;10834;52.268;6.770;2023-04-27T04:57:42;1.50;99.90
21353;DHT22;10834;52.268;6.770;2023-04-27T05:00:28;1.50;99.90
21353;DHT22;10834;52.268;6.770;2023-04-27T05:03:14;1.60;99.90
21353;DHT22;10834;52.268;6.770;2023-04-27T05:06:00;1.60;99.90
21353;DHT22;10834;52.268;6.770;2023-04-27T05:08:47;1.70;99.90
21353;DHT22;10834;52.268;6.770;2023-04-27T05:11:33;1.70;99.90
21353;DHT22;10834;52.268;6.770;2023-04-27T05:14:18;1.80;99.90
21353;DHT22;10834;52.268;6.770;2023-04-27T05:17:05;1.90;99.90
21353;DHT22;10834;52.268;6.770;2023-04-27T05:19:51;1.90;99.90
21353;DHT22;10834;52.268;6.770;2023-04-27T05:22:37;2.00;99.90
21353;DHT22;10834;52.268;6.770;2023-04-27T05:25:23;2.10;99.90
21353;DHT22;10834;52.268;6.770;2023-04-27T05:28:09;2.20;99.90
21353;DHT22;10834;52.268;6.770;2023-04-27T05:30:55;2.30;99.90
21353;DHT22;10834;52.268;6.770;2023-04-27T05:33:42;2.40;99.90
21353;DHT22;10834;52.268;6.770;2023-04-27T05:36:28;2.50;99.90
21353;DHT22;10834;52.268;6.770;2023-04-27T05:39:14;2.60;99.90
21353;DHT22;10834;52.268;6.770;2023-04-27T05:42:00;2.70;99.90
21353;DHT22;10834;52.268;6.770;2023-04-27T05:44:47;2.80;99.90
21353;DHT22;10834;52.268;6.770;2023-04-27T05:47:33;2.90;99.90
21353;DHT22;10834;52.268;6.770;2023-04-27T05:50:19;3.10;99.90
21353;DHT22;10834;52.268;6.770;2023-04-27T05:53:05;3.20;99.90
21353;DHT22;10834;52.268;6.770;2023-04-27T05:55:51;3.30;99.90
21353;DHT22;10834;52.268;6.770;2023-04-27T05:58:38;3.50;99.90
21353;DHT22;10834;52.268;6.770;2023-04-27T06:01:24;3.60;99.90
21353;DHT22;10834;52.268;6.770;2023-04-27T06:04:10;3.80;99.90
21353;DHT22;10834;52.268;6.770;2023-04-27T06:06:56;4.00;99.90
21353;DHT22;10834;52.268;6.770;2023-04-27T06:09:42;4.10;99.90
21353;DHT22;10834;52.268;6.770;2023-04-27T06:12:28;4.30;99.90
21353;DHT22;10834;52.268;6.770;2023-04-27T06:15:14;4.50;99.90
21353;DHT22;10834;52.268;6.770;2023-04-27T06:18:00;4.70;99.90
21353;DHT22;10834;52.268;6.770;2023-04-27T06:20:46;4.90;99.90
21353;DHT22;10834;52.268;6.770;2023-04-27T06:23:32;5.40;99.90
21353;DHT22;10834;52.268;6.770;2023-04-27T06:26:18;9.70;99.90
21353;DHT22;10834;52.268;6.770;2023-04-27T06:29:04;14.50;99.90
21353;DHT22;10834;52.268;6.770;2023-04-27T06:31:52;18.30;71.60
21353;DHT22;10834;52.268;6.770;2023-04-27T06:34:38;21.30;55.40
21353;DHT22;10834;52.268;6.770;2023-04-27T06:37:25;23.60;46.90
21353;DHT22;10834;52.268;6.770;2023-04-27T06:40:11;25.40;41.50
21353;DHT22;10834;52.268;6.770;2023-04-27T06:42:57;26.80;37.50
21353;DHT22;10834;52.268;6.770;2023-04-27T06:45:43;27.90;34.80
21353;DHT22;10834;52.268;6.770;2023-04-27T06:48:29;29.00;32.80
21353;DHT22;10834;52.268;6.770;2023-04-27T06:51:15;29.90;31.90
21353;DHT22;10834;52.268;6.770;2023-04-27T06:54:01;30.80;31.30
21353;DHT22;10834;52.268;6.770;2023-04-27T06:56:48;31.60;29.20
21353;DHT22;10834;52.268;6.770;2023-04-27T06:59:34;32.20;28.50
21353;DHT22;10834;52.268;6.770;2023-04-27T07:02:20;32.80;28.20
21353;DHT22;10834;52.268;6.770;2023-04-27T07:05:06;33.30;26.90
21353;DHT22;10834;52.268;6.770;2023-04-27T07:07:53;34.00;27.00
21353;DHT22;10834;52.268;6.770;2023-04-27T07:10:39;34.50;26.00
21353;DHT22;10834;52.268;6.770;2023-04-27T07:13:25;34.90;25.90
21353;DHT22;10834;52.268;6.770;2023-04-27T07:16:11;35.30;25.50
21353;DHT22;10834;52.268;6.770;2023-04-27T07:18:57;35.80;25.90
21353;DHT22;10834;52.268;6.770;2023-04-27T07:21:43;36.20;25.00
21353;DHT22;10834;52.268;6.770;2023-04-27T07:24:29;36.30;25.10
21353;DHT22;10834;52.268;6.770;2023-04-27T07:27:15;36.60;23.90
21353;DHT22;10834;52.268;6.770;2023-04-27T07:30:02;36.20;23.40
21353;DHT22;10834;52.268;6.770;2023-04-27T07:32:48;36.40;23.70
21353;DHT22;10834;52.268;6.770;2023-04-27T07:35:39;36.90;23.80
21353;DHT22;10834;52.268;6.770;2023-04-27T07:38:25;37.40;24.30
21353;DHT22;10834;52.268;6.770;2023-04-27T07:41:11;37.80;23.30
21353;DHT22;10834;52.268;6.770;2023-04-27T07:43:57;37.90;23.40
21353;DHT22;10834;52.268;6.770;2023-04-27T07:46:43;38.10;23.70
21353;DHT22;10834;52.268;6.770;2023-04-27T07:49:29;38.20;22.80
21353;DHT22;10834;52.268;6.770;2023-04-27T07:52:15;38.40;22.70
21353;DHT22;10834;52.268;6.770;2023-04-27T07:55:01;38.70;22.70
21353;DHT22;10834;52.268;6.770;2023-04-27T07:57:52;38.80;22.40
21353;DHT22;10834;52.268;6.770;2023-04-27T08:00:38;38.80;22.10
21353;DHT22;10834;52.268;6.770;2023-04-27T08:03:24;38.80;21.20
21353;DHT22;10834;52.268;6.770;2023-04-27T08:06:10;38.70;21.30
21353;DHT22;10834;52.268;6.770;2023-04-27T08:08:56;38.80;21.60
21353;DHT22;10834;52.268;6.770;2023-04-27T08:11:45;38.60;21.00
21353;DHT22;10834;52.268;6.770;2023-04-27T08:14:34;38.30;21.40
21353;DHT22;10834;52.268;6.770;2023-04-27T08:17:20;38.40;21.80
21353;DHT22;10834;52.268;6.770;2023-04-27T08:20:07;38.70;21.80
21353;DHT22;10834;52.268;6.770;2023-04-27T08:22:56;38.50;21.30
21353;DHT22;10834;52.268;6.770;2023-04-27T08:25:42;38.30;21.20
21353;DHT22;10834;52.268;6.770;2023-04-27T08:28:28;38.60;21.80
21353;DHT22;10834;52.268;6.770;2023-04-27T08:31:14;38.80;21.10
21353;DHT22;10834;52.268;6.770;2023-04-27T08:34:01;38.70;20.60
21353;DHT22;10834;52.268;6.770;2023-04-27T08:36:46;38.50;20.70
21353;DHT22;10834;52.268;6.770;2023-04-27T08:39:33;38.20;21.10
21353;DHT22;10834;52.268;6.770;2023-04-27T08:42:19;38.30;21.50
21353;DHT22;10834;52.268;6.770;2023-04-27T08:45:06;38.80;21.30
21353;DHT22;10834;52.268;6.770;2023-04-27T08:47:53;38.60;20.10
21353;DHT22;10834;52.268;6.770;2023-04-27T08:50:43;38.20;20.60
21353;DHT22;10834;52.268;6.770;2023-04-27T08:53:29;38.20;20.50
21353;DHT22;10834;52.268;6.770;2023-04-27T08:56:20;38.30;21.30
21353;DHT22;10834;52.268;6.770;2023-04-27T08:59:15;38.30;21.20
21353;DHT22;10834;52.268;6.770;2023-04-27T09:02:03;38.20;20.40
21353;DHT22;10834;52.268;6.770;2023-04-27T09:04:49;37.80;20.70
21353;DHT22;10834;52.268;6.770;2023-04-27T09:07:36;37.70;20.90
21353;DHT22;10834;52.268;6.770;2023-04-27T09:10:23;37.60;21.40
21353;DHT22;10834;52.268;6.770;2023-04-27T09:13:09;37.30;20.60
21353;DHT22;10834;52.268;6.770;2023-04-27T09:15:55;36.90;21.20
21353;DHT22;10834;52.268;6.770;2023-04-27T09:18:42;36.60;21.20
21353;DHT22;10834;52.268;6.770;2023-04-27T09:21:29;36.80;21.00
21353;DHT22;10834;52.268;6.770;2023-04-27T09:24:16;36.70;20.50
21353;DHT22;10834;52.268;6.770;2023-04-27T09:27:02;36.60;21.40
21353;DHT22;10834;52.268;6.770;2023-04-27T09:29:50;36.40;20.80
21353;DHT22;10834;52.268;6.770;2023-04-27T09:32:36;36.50;21.30
21353;DHT22;10834;52.268;6.770;2023-04-27T09:35:27;36.50;21.00
21353;DHT22;10834;52.268;6.770;2023-04-27T09:38:14;36.30;20.40
21353;DHT22;10834;52.268;6.770;2023-04-27T09:41:01;36.30;20.80
21353;DHT22;10834;52.268;6.770;2023-04-27T09:43:48;35.90;20.30
21353;DHT22;10834;52.268;6.770;2023-04-27T09:46:34;35.70;20.80
21353;DHT22;10834;52.268;6.770;2023-04-27T09:49:21;35.20;20.00
21353;DHT22;10834;52.268;6.770;2023-04-27T09:52:09;34.40;20.00
21353;DHT22;10834;52.268;6.770;2023-04-27T09:54:56;34.40;20.70
21353;DHT22;10834;52.268;6.770;2023-04-27T10:00:47;34.50;22.20
21353;DHT22;10834;52.268;6.770;2023-04-27T10:04:05;34.40;22.20
21353;DHT22;10834;52.268;6.770;2023-04-27T10:07:03;34.00;21.80
21353;DHT22;10834;52.268;6.770;2023-04-27T10:09:50;33.70;22.60
21353;DHT22;10834;52.268;6.770;2023-04-27T10:12:36;33.10;21.20
21353;DHT22;10834;52.268;6.770;2023-04-27T10:15:25;32.50;21.80
21353;DHT22;10834;52.268;6.770;2023-04-27T10:18:12;32.30;22.10
21353;DHT22;10834;52.268;6.770;2023-04-27T10:21:10;32.00;22.30
21353;DHT22;10834;52.268;6.770;2023-04-27T10:24:08;31.10;23.10
21353;DHT22;10834;52.268;6.770;2023-04-27T10:27:00;30.30;23.50
21353;DHT22;10834;52.268;6.770;2023-04-27T10:29:46;29.70;23.70
21353;DHT22;10834;52.268;6.770;2023-04-27T10:32:33;29.30;22.80
21353;DHT22;10834;52.268;6.770;2023-04-27T10:35:20;28.90;23.00
21353;DHT22;10834;52.268;6.770;2023-04-27T10:38:17;28.80;25.20
21353;DHT22;10834;52.268;6.770;2023-04-27T10:41:11;28.90;23.90
21353;DHT22;10834;52.268;6.770;2023-04-27T10:44:15;29.10;25.80
21353;DHT22;10834;52.268;6.770;2023-04-27T10:47:15;28.90;24.80
21353;DHT22;10834;52.268;6.770;2023-04-27T10:50:02;27.60;25.00
21353;DHT22;10834;52.268;6.770;2023-04-27T10:52:49;25.80;25.30
21353;DHT22;10834;52.268;6.770;2023-04-27T10:55:35;24.50;26.70
21353;DHT22;10834;52.268;6.770;2023-04-27T10:58:22;23.70;28.20
21353;DHT22;10834;52.268;6.770;2023-04-27T11:01:08;23.30;29.00
21353;DHT22;10834;52.268;6.770;2023-04-27T11:03:58;23.00;30.00
21353;DHT22;10834;52.268;6.770;2023-04-27T11:06:45;22.60;29.10
21353;DHT22;10834;52.268;6.770;2023-04-27T11:09:31;22.40;29.60
21353;DHT22;10834;52.268;6.770;2023-04-27T11:12:17;21.90;29.20
21353;DHT22;10834;52.268;6.770;2023-04-27T11:15:04;21.00;29.50
21353;DHT22;10834;52.268;6.770;2023-04-27T11:17:50;20.50;30.30
21353;DHT22;10834;52.268;6.770;2023-04-27T11:20:36;20.50;31.60
21353;DHT22;10834;52.268;6.770;2023-04-27T11:23:27;20.40;30.90
21353;DHT22;10834;52.268;6.770;2023-04-27T11:26:18;20.40;31.70
21353;DHT22;10834;52.268;6.770;2023-04-27T11:29:08;20.50;33.50
21353;DHT22;10834;52.268;6.770;2023-04-27T11:31:56;20.50;31.40
21353;DHT22;10834;52.268;6.770;2023-04-27T11:34:52;20.50;30.00
21353;DHT22;10834;52.268;6.770;2023-04-27T11:37:38;20.70;33.30
21353;DHT22;10834;52.268;6.770;2023-04-27T11:40:24;21.20;33.60
21353;DHT22;10834;52.268;6.770;2023-04-27T11:43:14;21.20;31.10
21353;DHT22;10834;52.268;6.770;2023-04-27T11:46:03;20.90;30.00
21353;DHT22;10834;52.268;6.770;2023-04-27T11:48:51;20.80;31.30
21353;DHT22;10834;52.268;6.770;2023-04-27T11:51:39;20.90;31.30
21353;DHT22;10834;52.268;6.770;2023-04-27T11:54:28;20.90;30.00
21353;DHT22;10834;52.268;6.770;2023-04-27T11:57:14;20.80;29.90
21353;DHT22;10834;52.268;6.770;2023-04-27T12:00:03;20.80;32.40
21353;DHT22;10834;52.268;6.770;2023-04-27T12:02:56;21.10;33.50
21353;DHT22;10834;52.268;6.770;2023-04-27T12:05:49;20.90;30.00
21353;DHT22;10834;52.268;6.770;2023-04-27T12:08:35;20.10;31.30
21353;DHT22;10834;52.268;6.770;2023-04-27T12:11:26;19.80;32.50
21353;DHT22;10834;52.268;6.770;2023-04-27T12:14:15;19.60;31.70
21353;DHT22;10834;52.268;6.770;2023-04-27T12:17:01;19.60;33.60
21353;DHT22;10834;52.268;6.770;2023-04-27T12:19:47;19.60;33.50
21353;DHT22;10834;52.268;6.770;2023-04-27T12:22:34;19.80;35.00
21353;DHT22;10834;52.268;6.770;2023-04-27T12:25:20;19.90;35.70
21353;DHT22;10834;52.268;6.770;2023-04-27T12:28:06;20.00;34.20
21353;DHT22;10834;52.268;6.770;2023-04-27T12:30:52;19.80;32.50
21353;DHT22;10834;52.268;6.770;2023-04-27T12:33:38;19.70;32.80
21353;DHT22;10834;52.268;6.770;2023-04-27T12:36:24;19.70;32.90
21353;DHT22;10834;52.268;6.770;2023-04-27T12:41:59;19.60;31.60
21353;DHT22;10834;52.268;6.770;2023-04-27T12:44:46;19.80;33.90
21353;DHT22;10834;52.268;6.770;2023-04-27T12:47:32;20.20;33.00
21353;DHT22;10834;52.268;6.770;2023-04-27T12:50:19;20.20;32.00
21353;DHT22;10834;52.268;6.770;2023-04-27T12:53:06;19.70;33.60
21353;DHT22;10834;52.268;6.770;2023-04-27T12:55:52;19.70;34.20
21353;DHT22;10834;52.268;6.770;2023-04-27T12:58:38;19.30;33.60
21353;DHT22;10834;52.268;6.770;2023-04-27T13:01:25;18.90;34.10
21353;DHT22;10834;52.268;6.770;2023-04-27T13:04:17;18.60;36.90
21353;DHT22;10834;52.268;6.770;2023-04-27T13:07:04;18.30;37.20
21353;DHT22;10834;52.268;6.770;2023-04-27T13:09:51;18.30;38.00
21353;DHT22;10834;52.268;6.770;2023-04-27T13:12:37;18.50;35.30
21353;DHT22;10834;52.268;6.770;2023-04-27T13:15:23;18.90;35.80
21353;DHT22;10834;52.268;6.770;2023-04-27T13:18:09;19.20;34.00
21353;DHT22;10834;52.268;6.770;2023-04-27T13:20:55;19.20;33.20
21353;DHT22;10834;52.268;6.770;2023-04-27T13:23:41;19.20;34.60
21353;DHT22;10834;52.268;6.770;2023-04-27T13:26:27;19.30;35.50
21353;DHT22;10834;52.268;6.770;2023-04-27T13:29:13;19.10;35.80
21353;DHT22;10834;52.268;6.770;2023-04-27T13:31:59;19.00;35.20
21353;DHT22;10834;52.268;6.770;2023-04-27T13:34:45;18.70;35.10
21353;DHT22;10834;52.268;6.770;2023-04-27T13:37:32;18.40;34.00
21353;DHT22;10834;52.268;6.770;2023-04-27T13:40:21;18.30;33.90
21353;DHT22;10834;52.268;6.770;2023-04-27T13:43:07;17.90;33.70
21353;DHT22;10834;52.268;6.770;2023-04-27T13:45:53;17.70;34.90
21353;DHT22;10834;52.268;6.770;2023-04-27T13:48:40;17.60;35.00
21353;DHT22;10834;52.268;6.770;2023-04-27T13:51:27;17.70;36.00
21353;DHT22;10834;52.268;6.770;2023-04-27T13:54:14;17.80;37.30
21353;DHT22;10834;52.268;6.770;2023-04-27T13:57:00;18.00;37.50
21353;DHT22;10834;52.268;6.770;2023-04-27T13:59:48;18.00;36.40
21353;DHT22;10834;52.268;6.770;2023-04-27T14:02:34;18.00;34.80
21353;DHT22;10834;52.268;6.770;2023-04-27T14:05:20;17.80;34.30
21353;DHT22;10834;52.268;6.770;2023-04-27T14:08:07;17.50;34.20
21353;DHT22;10834;52.268;6.770;2023-04-27T14:10:53;17.20;35.10
21353;DHT22;10834;52.268;6.770;2023-04-27T14:13:39;17.10;35.90
21353;DHT22;10834;52.268;6.770;2023-04-27T14:16:25;17.10;36.50
21353;DHT22;10834;52.268;6.770;2023-04-27T14:19:12;17.10;36.50
21353;DHT22;10834;52.268;6.770;2023-04-27T14:22:00;17.10;36.80
21353;DHT22;10834;52.268;6.770;2023-04-27T14:24:46;17.10;39.90
21353;DHT22;10834;52.268;6.770;2023-04-27T14:27:32;17.00;40.40
21353;DHT22;10834;52.268;6.770;2023-04-27T14:30:19;16.80;39.60
21353;DHT22;10834;52.268;6.770;2023-04-27T14:33:05;16.60;37.80
21353;DHT22;10834;52.268;6.770;2023-04-27T14:35:51;16.50;37.50
21353;DHT22;10834;52.268;6.770;2023-04-27T14:38:37;16.50;38.00
21353;DHT22;10834;52.268;6.770;2023-04-27T14:41:23;16.50;36.70
21353;DHT22;10834;52.268;6.770;2023-04-27T14:44:09;16.50;36.60
21353;DHT22;10834;52.268;6.770;2023-04-27T14:46:56;16.50;37.60
21353;DHT22;10834;52.268;6.770;2023-04-27T14:49:43;16.60;37.10
21353;DHT22;10834;52.268;6.770;2023-04-27T14:52:29;16.50;36.40
21353;DHT22;10834;52.268;6.770;2023-04-27T14:55:15;16.50;36.60
21353;DHT22;10834;52.268;6.770;2023-04-27T14:58:02;16.40;37.50
21353;DHT22;10834;52.268;6.770;2023-04-27T15:00:49;16.40;39.60
21353;DHT22;10834;52.268;6.770;2023-04-27T15:03:35;16.40;39.60
21353;DHT22;10834;52.268;6.770;2023-04-27T15:06:22;16.30;39.80
21353;DHT22;10834;52.268;6.770;2023-04-27T15:09:09;16.20;39.00
21353;DHT22;10834;52.268;6.770;2023-04-27T15:11:56;16.20;40.80
21353;DHT22;10834;52.268;6.770;2023-04-27T15:14:42;16.20;39.80
21353;DHT22;10834;52.268;6.770;2023-04-27T15:17:28;16.10;39.00
21353;DHT22;10834;52.268;6.770;2023-04-27T15:20:14;16.10;39.60
21353;DHT22;10834;52.268;6.770;2023-04-27T15:23:01;16.10;39.70
21353;DHT22;10834;52.268;6.770;2023-04-27T15:25:47;16.20;41.00
21353;DHT22;10834;52.268;6.770;2023-04-27T15:28:34;16.20;40.80
21353;DHT22;10834;52.268;6.770;2023-04-27T15:31:21;16.20;38.70
21353;DHT22;10834;52.268;6.770;2023-04-27T15:34:07;16.10;37.90
21353;DHT22;10834;52.268;6.770;2023-04-27T15:36:53;16.00;38.00
21353;DHT22;10834;52.268;6.770;2023-04-27T15:39:39;16.00;40.10
21353;DHT22;10834;52.268;6.770;2023-04-27T15:42:25;16.00;38.80
21353;DHT22;10834;52.268;6.770;2023-04-27T15:45:11;16.00;38.00
21353;DHT22;10834;52.268;6.770;2023-04-27T15:47:57;16.00;38.80
21353;DHT22;10834;52.268;6.770;2023-04-27T15:50:44;16.00;39.50
21353;DHT22;10834;52.268;6.770;2023-04-27T15:53:31;15.90;39.50
21353;DHT22;10834;52.268;6.770;2023-04-27T15:56:17;15.90;39.90
21353;DHT22;10834;52.268;6.770;2023-04-27T15:59:03;15.90;38.30
21353;DHT22;10834;52.268;6.770;2023-04-27T16:01:49;15.80;37.50
21353;DHT22;10834;52.268;6.770;2023-04-27T16:04:35;15.80;38.20
21353;DHT22;10834;52.268;6.770;2023-04-27T16:07:21;15.70;39.50
21353;DHT22;10834;52.268;6.770;2023-04-27T16:10:08;15.60;39.50
21353;DHT22;10834;52.268;6.770;2023-04-27T16:12:54;15.60;38.60
21353;DHT22;10834;52.268;6.770;2023-04-27T16:15:40;15.40;38.40
21353;DHT22;10834;52.268;6.770;2023-04-27T16:18:26;15.30;38.40
21353;DHT22;10834;52.268;6.770;2023-04-27T16:21:12;15.10;38.90
21353;DHT22;10834;52.268;6.770;2023-04-27T16:23:58;14.90;39.20
21353;DHT22;10834;52.268;6.770;2023-04-27T16:26:45;14.80;39.40
21353;DHT22;10834;52.268;6.770;2023-04-27T16:29:31;14.60;40.40
21353;DHT22;10834;52.268;6.770;2023-04-27T16:32:17;14.50;40.70
21353;DHT22;10834;52.268;6.770;2023-04-27T16:35:06;14.50;39.80
21353;DHT22;10834;52.268;6.770;2023-04-27T16:37:52;14.40;41.50
21353;DHT22;10834;52.268;6.770;2023-04-27T16:40:39;14.30;42.00
21353;DHT22;10834;52.268;6.770;2023-04-27T16:43:25;14.30;41.90
21353;DHT22;10834;52.268;6.770;2023-04-27T16:46:11;14.20;40.80
21353;DHT22;10834;52.268;6.770;2023-04-27T16:48:59;14.10;40.60
21353;DHT22;10834;52.268;6.770;2023-04-27T16:51:45;14.00;40.10
21353;DHT22;10834;52.268;6.770;2023-04-27T16:54:31;14.00;40.60
21353;DHT22;10834;52.268;6.770;2023-04-27T16:57:17;14.00;41.20
21353;DHT22;10834;52.268;6.770;2023-04-27T17:00:03;14.00;41.30
21353;DHT22;10834;52.268;6.770;2023-04-27T17:02:51;13.90;42.50
21353;DHT22;10834;52.268;6.770;2023-04-27T17:05:37;14.00;43.60
21353;DHT22;10834;52.268;6.770;2023-04-27T17:08:23;13.90;44.00
21353;DHT22;10834;52.268;6.770;2023-04-27T17:11:09;13.90;44.40
21353;DHT22;10834;52.268;6.770;2023-04-27T17:13:55;13.80;42.40
21353;DHT22;10834;52.268;6.770;2023-04-27T17:16:42;13.70;42.10
21353;DHT22;10834;52.268;6.770;2023-04-27T17:19:28;13.60;42.30
21353;DHT22;10834;52.268;6.770;2023-04-27T17:22:14;13.50;43.50
21353;DHT22;10834;52.268;6.770;2023-04-27T17:25:01;13.40;43.80
21353;DHT22;10834;52.268;6.770;2023-04-27T17:27:47;13.40;45.00
21353;DHT22;10834;52.268;6.770;2023-04-27T17:30:33;13.30;43.50
21353;DHT22;10834;52.268;6.770;2023-04-27T17:33:19;13.10;43.30
21353;DHT22;10834;52.268;6.770;2023-04-27T17:36:06;13.00;43.70
21353;DHT22;10834;52.268;6.770;2023-04-27T17:38:52;12.90;44.00
21353;DHT22;10834;52.268;6.770;2023-04-27T17:41:38;12.90;44.50
21353;DHT22;10834;52.268;6.770;2023-04-27T17:44:25;12.90;45.20
21353;DHT22;10834;52.268;6.770;2023-04-27T17:47:11;12.80;44.30